CZE weather

José Leonardo Chirinos Airport
Coro, Falcon, Venezuela

Public forecast

Using degrees Celsius for public forecast. Weather courtesy of forecast.io.

METAR (pilot weather report)

Report is more than 6 hours old.

Retrieved 2018/11/13 12:00 UTC (10 months ago):

SVCR 131200Z /////KT 9999 FEW016 28/24 Q1012

TAF (pilot weather forecast)

Closest forecast is Josefa Camejo International Airport, 35.3 nm (65.4 km) NW. Retrieved 2019/09/19 12:03 UTC (4 hours ago):

TAF TAF SVJC 191000Z 1912/2012 25005KT 9999 BKN016 TX32/17Z TN23/08Z BECMG 1912/1916 11005KT 9999 SCT016